Main page
METAR-TAF:

METAR-TAF

Airports :

Tri-County Regional Airport

Lone Rock, Wisconsin, United States

latitude: 43-12-43N, longitude: 090-10-53W, elevation: 718 ft

Current weather observation

The report was made 1 hour and 14 minutes ago, at 05:56 UTC
Wind 3 mph from the South/Southeast
Temperature 57°F
Humidity 88%
Pressure 29.85 in. Hg
Visibility: 10 miles
Clear sky

METAR: KLNR 240556Z AUTO 15003KT 10SM CLR 14/12 A2985 RMK AO2 SLP100 T01390117 10250 20122 402610089 58004

Time: 02:10 (07:10 UTC)


TAF: missing

Weather observations and forecasts of more than 4000 airports (METAR and TAF reports).

The available stations are represented by yellow and red dots on the map.

Hover mouse over dot to see the name of the station.

Then click to see weather observations and forecasts.

To change the map : click on the green buttons with a black cross to zoom in, on the green button with a dash to zoom out, or on the green arrows for adjacent maps.


METAR-TAF: